VGEG/CGP METAR and TAF weather

Enter ICAO airport designator
Station Type Date Time Source
VGEG METAR 2020/10/20 16:00 UTC NOAA

VGEG 201600Z 15004KT 5000 SCT018 BKN100 27/24 Q1008 NOSIG


Station Type Date Time Source
VGEG Decoded METAR 2020/10/20 16:00 UTC NOAA

Chittagong Patenga , Bangladesh (VGEG) 22-16N 091-49E 6M
Oct 20, 2020 - 12:00 PM EDT / 2020.10.20 1600 UTC
Wind: from the SSE (150 degrees) at 5 MPH (4 KT):0
Visibility: 3 mile(s):0
Sky conditions: mostly cloudy
Temperature: 80 F (27 C)
Dew Point: 75 F (24 C)
Relative Humidity: 83%
Pressure (altimeter): 29.77 in. Hg (1008 hPa)
ob: VGEG 201600Z 15004KT 5000 SCT018 BKN100 27/24 Q1008 NOSIG
cycle: 16

Station Type Date Time Source
VGEG TAF 2020/10/20 18:21 UTC NOAA

TAF TAF VGEG 201700Z 2018/2124 17005KT 5000 SCT015 BKN100
BECMG 2102/2104 08005KT 4500HZ SCT016 SCT10
BECMG 2112/2114 15008KT 4000 RA SCT014 BKN100
BECMG 2118/2120 09006KT 4500 SCT015 BKN100

Example: see airport list